createdAt,value
2023-05-13T00:00:41.703Z,13.32
2023-05-13T00:01:41.656Z,13.32
2023-05-13T00:02:41.763Z,13.29
2023-05-13T00:03:41.851Z,13.28
2023-05-13T00:04:41.626Z,13.28
2023-05-13T00:05:41.661Z,13.27
2023-05-13T00:06:41.688Z,13.25
2023-05-13T00:07:41.675Z,13.24
2023-05-13T00:08:41.588Z,13.22
2023-05-13T00:09:41.573Z,13.22
2023-05-13T00:10:41.557Z,13.21
2023-05-13T00:11:41.545Z,13.19
2023-05-13T00:12:41.548Z,13.17
2023-05-13T00:13:41.552Z,13.17
2023-05-13T00:14:41.539Z,13.14
2023-05-13T00:15:41.492Z,13.13
2023-05-13T00:16:41.571Z,13.13
2023-05-13T00:17:41.549Z,13.13
2023-05-13T00:18:41.571Z,13.12
2023-05-13T00:19:41.473Z,13.12
2023-05-13T00:20:41.468Z,13.13
2023-05-13T00:21:41.463Z,13.12
2023-05-13T00:22:41.445Z,13.10
2023-05-13T00:23:41.420Z,13.09
2023-05-13T00:24:41.427Z,13.09
2023-05-13T00:25:41.437Z,13.07
2023-05-13T00:26:41.395Z,13.07
2023-05-13T00:27:41.379Z,13.07
2023-05-13T00:28:41.352Z,13.07
2023-05-13T00:29:41.349Z,13.04
2023-05-13T00:30:41.334Z,13.06
2023-05-13T00:31:41.395Z,13.06
2023-05-13T00:32:41.386Z,13.07
2023-05-13T00:33:41.428Z,13.07
2023-05-13T00:34:41.288Z,13.09
2023-05-13T00:35:41.289Z,13.06
2023-05-13T00:36:41.270Z,13.06
2023-05-13T00:37:41.251Z,13.07
2023-05-13T00:38:41.260Z,13.06
2023-05-13T00:39:41.239Z,13.06
2023-05-13T00:40:41.220Z,13.06
2023-05-13T00:41:41.221Z,13.04
2023-05-13T00:42:41.201Z,13.06
2023-05-13T00:43:41.194Z,13.06
2023-05-13T00:44:41.197Z,13.04
2023-05-13T00:45:41.259Z,13.01
2023-05-13T00:46:41.189Z,13.03
2023-05-13T00:47:41.212Z,13.01
2023-05-13T00:48:41.165Z,13.01
2023-05-13T00:49:41.139Z,13.01
2023-05-13T00:50:41.122Z,13.01
2023-05-13T00:51:41.138Z,13.01
2023-05-13T00:52:41.102Z,13.03
2023-05-13T00:53:41.114Z,13.01
2023-05-13T00:54:41.086Z,13.01
2023-05-13T00:55:41.074Z,13.01
2023-05-13T00:56:41.078Z,12.99
2023-05-13T00:57:41.038Z,12.96
2023-05-13T00:58:41.035Z,12.95
2023-05-13T00:59:41.030Z,12.94
2023-05-13T01:00:41.016Z,12.92
2023-05-13T01:01:41.061Z,12.91
2023-05-13T01:02:41.042Z,12.89
2023-05-13T01:03:41.138Z,12.88
2023-05-13T01:04:40.973Z,12.87
2023-05-13T01:05:40.979Z,12.85
2023-05-13T01:06:40.966Z,12.84
2023-05-13T01:07:40.918Z,12.79
2023-05-13T01:08:40.921Z,12.77
2023-05-13T01:09:40.919Z,12.76
2023-05-13T01:10:40.912Z,12.71
2023-05-13T01:11:40.902Z,12.73
2023-05-13T01:12:40.893Z,12.67
2023-05-13T01:13:40.859Z,12.67
2023-05-13T01:14:40.855Z,12.66
2023-05-13T01:15:40.851Z,12.62
2023-05-13T01:16:40.897Z,12.58
2023-05-13T01:17:40.878Z,12.58
2023-05-13T01:18:40.863Z,12.55
2023-05-13T01:19:40.810Z,12.54
2023-05-13T01:20:40.798Z,12.51
2023-05-13T01:21:40.766Z,12.48
2023-05-13T01:22:40.780Z,12.44
2023-05-13T01:23:40.759Z,12.41
2023-05-13T01:24:40.818Z,12.37
2023-05-13T01:25:40.732Z,12.36
2023-05-13T01:26:40.753Z,12.34
2023-05-13T01:27:40.726Z,12.31
2023-05-13T01:28:40.716Z,12.29
2023-05-13T01:29:40.711Z,12.25
2023-05-13T01:30:40.694Z,12.26
2023-05-13T01:31:40.720Z,12.26
2023-05-13T01:32:40.712Z,12.25
2023-05-13T01:33:40.661Z,12.22
2023-05-13T01:34:40.637Z,12.22
2023-05-13T01:35:40.620Z,12.22
2023-05-13T01:36:40.627Z,12.21
2023-05-13T01:37:40.616Z,12.18
2023-05-13T01:38:40.606Z,12.16
2023-05-13T01:39:40.594Z,12.18
2023-05-13T01:40:40.584Z,12.16
2023-05-13T01:41:40.565Z,12.15
2023-05-13T01:42:40.583Z,12.11
2023-05-13T01:43:40.566Z,12.08
2023-05-13T01:44:40.529Z,12.07
2023-05-13T01:45:40.522Z,12.05
2023-05-13T01:46:40.610Z,12.05
2023-05-13T01:47:40.579Z,12.03
2023-05-13T01:48:40.471Z,11.97
2023-05-13T01:49:40.452Z,11.94
2023-05-13T01:50:40.462Z,11.90
2023-05-13T01:51:40.424Z,11.87
2023-05-13T01:52:40.428Z,11.87
2023-05-13T01:53:40.422Z,11.82
2023-05-13T01:54:40.414Z,11.78
2023-05-13T01:55:40.409Z,11.78
2023-05-13T01:56:40.389Z,11.77
2023-05-13T01:57:40.398Z,11.74
2023-05-13T01:58:40.354Z,11.72
2023-05-13T01:59:40.373Z,11.70
2023-05-13T02:00:40.337Z,11.69
2023-05-13T02:01:40.413Z,11.72
2023-05-13T02:02:40.391Z,11.72
2023-05-13T02:03:40.393Z,11.72
2023-05-13T02:04:40.285Z,11.74
2023-05-13T02:05:40.305Z,11.72
2023-05-13T02:06:40.268Z,11.70
2023-05-13T02:07:40.265Z,11.69
2023-05-13T02:08:40.246Z,11.67
2023-05-13T02:09:40.236Z,11.64
2023-05-13T02:10:40.236Z,11.63
2023-05-13T02:11:40.215Z,11.62
2023-05-13T02:12:40.203Z,11.60
2023-05-13T02:13:40.217Z,11.56
2023-05-13T02:14:40.187Z,11.56
2023-05-13T02:15:40.174Z,11.56
2023-05-13T02:16:40.232Z,11.59
2023-05-13T02:17:40.176Z,11.57
2023-05-13T02:18:40.192Z,11.57
2023-05-13T02:19:40.175Z,11.60
2023-05-13T02:20:40.131Z,11.62
2023-05-13T02:21:40.106Z,11.63
2023-05-13T02:22:40.105Z,11.64
2023-05-13T02:23:40.113Z,11.63
2023-05-13T02:24:40.081Z,11.66
2023-05-13T02:25:40.068Z,11.64
2023-05-13T02:26:40.067Z,11.67
2023-05-13T02:27:40.043Z,11.67
2023-05-13T02:28:40.038Z,11.69
2023-05-13T02:29:40.103Z,11.67
2023-05-13T02:30:40.015Z,11.69
2023-05-13T02:31:40.042Z,11.67
2023-05-13T02:32:40.023Z,11.67
2023-05-13T02:33:39.983Z,11.66
2023-05-13T02:34:40.040Z,11.66
2023-05-13T02:35:39.962Z,11.67
2023-05-13T02:36:39.950Z,11.66
2023-05-13T02:37:39.939Z,11.66
2023-05-13T02:38:39.924Z,11.64
2023-05-13T02:39:39.938Z,11.66
2023-05-13T02:40:39.919Z,11.66
2023-05-13T02:41:39.897Z,11.66
2023-05-13T02:42:39.897Z,11.66
2023-05-13T02:43:39.864Z,11.69
2023-05-13T02:44:39.857Z,11.69
2023-05-13T02:45:39.910Z,11.69
2023-05-13T02:46:39.851Z,11.72
2023-05-13T02:47:39.871Z,11.72
2023-05-13T02:48:39.832Z,11.72
2023-05-13T02:49:39.832Z,11.74
2023-05-13T02:50:39.867Z,11.75
2023-05-13T02:51:39.796Z,11.75
2023-05-13T02:52:39.772Z,11.72
2023-05-13T02:53:39.766Z,11.74
2023-05-13T02:54:39.836Z,11.72
2023-05-13T02:55:39.772Z,11.74
2023-05-13T02:56:39.932Z,11.74
2023-05-13T02:57:39.727Z,11.75
2023-05-13T02:58:39.718Z,11.75
2023-05-13T02:59:39.716Z,11.77
2023-05-13T03:00:39.718Z,11.75
2023-05-13T03:01:39.780Z,11.75
2023-05-13T03:02:39.712Z,11.77
2023-05-13T03:03:39.750Z,11.77
2023-05-13T03:04:39.646Z,11.78
2023-05-13T03:05:39.654Z,11.77
2023-05-13T03:06:39.635Z,11.75
2023-05-13T03:07:39.615Z,11.74
2023-05-13T03:08:39.612Z,11.75
2023-05-13T03:09:39.592Z,11.75
2023-05-13T03:10:39.617Z,11.75
2023-05-13T03:11:39.593Z,11.77
2023-05-13T03:12:39.566Z,11.78
2023-05-13T03:13:39.570Z,11.77
2023-05-13T03:14:39.534Z,11.78
2023-05-13T03:15:40.966Z,11.78
2023-05-13T03:16:39.575Z,11.79
2023-05-13T03:17:39.549Z,11.78
2023-05-13T03:18:39.547Z,11.78
2023-05-13T03:19:39.486Z,11.78
2023-05-13T03:20:39.484Z,11.79
2023-05-13T03:21:39.545Z,11.81
2023-05-13T03:22:39.473Z,11.81
2023-05-13T03:23:39.446Z,11.79
2023-05-13T03:24:39.437Z,11.81
2023-05-13T03:25:39.425Z,11.79
2023-05-13T03:26:39.437Z,11.81
2023-05-13T03:27:39.400Z,11.81
2023-05-13T03:28:39.400Z,11.81
2023-05-13T03:29:39.387Z,11.82
2023-05-13T03:30:40.106Z,11.81
2023-05-13T03:31:39.827Z,11.79
2023-05-13T03:32:39.396Z,11.79
2023-05-13T03:33:39.367Z,11.78
2023-05-13T03:34:40.046Z,11.78
2023-05-13T03:35:39.349Z,11.77
2023-05-13T03:36:39.302Z,11.75
2023-05-13T03:37:39.287Z,11.77
2023-05-13T03:38:39.291Z,11.77
2023-05-13T03:39:39.292Z,11.78
2023-05-13T03:40:39.249Z,11.79
2023-05-13T03:41:39.254Z,11.79
2023-05-13T03:42:39.237Z,11.79
2023-05-13T03:43:39.255Z,11.78
2023-05-13T03:44:39.214Z,11.79
2023-05-13T03:45:39.210Z,11.79
2023-05-13T03:46:39.274Z,11.81
2023-05-13T03:47:39.259Z,11.79
2023-05-13T03:48:39.172Z,11.81
2023-05-13T03:49:39.156Z,11.81
2023-05-13T03:50:39.150Z,11.81
2023-05-13T03:51:39.165Z,11.79
2023-05-13T03:52:39.156Z,11.81
2023-05-13T03:53:39.111Z,11.82
2023-05-13T03:54:39.114Z,11.85
2023-05-13T03:55:39.092Z,11.85
2023-05-13T03:56:39.094Z,11.85
2023-05-13T03:57:39.084Z,11.84
2023-05-13T03:58:39.072Z,11.84
2023-05-13T03:59:39.050Z,11.85
2023-05-13T04:00:39.069Z,11.84
2023-05-13T04:01:39.098Z,11.82
2023-05-13T04:02:39.059Z,11.84
2023-05-13T04:03:39.011Z,11.82
2023-05-13T04:04:39.028Z,11.84
2023-05-13T04:05:39.038Z,11.84
2023-05-13T04:06:38.985Z,11.84
2023-05-13T04:07:39.194Z,11.84
2023-05-13T04:08:38.960Z,11.85
2023-05-13T04:09:38.990Z,11.85
2023-05-13T04:10:38.946Z,11.85
2023-05-13T04:11:38.918Z,11.87
2023-05-13T04:12:38.925Z,11.90
2023-05-13T04:13:38.902Z,11.87
2023-05-13T04:14:38.910Z,11.90
2023-05-13T04:15:38.872Z,11.90
2023-05-13T04:16:38.921Z,11.90
2023-05-13T04:17:38.920Z,11.90
2023-05-13T04:18:38.989Z,11.90
2023-05-13T04:19:38.853Z,11.93
2023-05-13T04:20:38.855Z,11.94
2023-05-13T04:21:38.811Z,11.96
2023-05-13T04:22:38.808Z,11.93
2023-05-13T04:23:38.806Z,11.94
2023-05-13T04:24:38.808Z,11.93
2023-05-13T04:25:39.497Z,11.93
2023-05-13T04:26:38.802Z,11.96
2023-05-13T04:27:39.807Z,11.96
2023-05-13T04:28:38.759Z,11.96
2023-05-13T04:29:39.092Z,11.94
2023-05-13T04:30:38.729Z,11.93
2023-05-13T04:31:39.482Z,11.93
2023-05-13T04:32:38.727Z,11.94
2023-05-13T04:33:39.387Z,11.94
2023-05-13T04:34:38.700Z,11.94
2023-05-13T04:35:39.693Z,11.96
2023-05-13T04:36:38.677Z,11.96
2023-05-13T04:37:38.638Z,11.98
2023-05-13T04:38:38.653Z,11.98
2023-05-13T04:39:38.613Z,12.00
2023-05-13T04:40:38.614Z,11.98
2023-05-13T04:41:38.593Z,11.98
2023-05-13T04:42:38.605Z,12.00
2023-05-13T04:43:38.592Z,12.00
2023-05-13T04:44:38.568Z,12.00
2023-05-13T04:45:38.550Z,12.01
2023-05-13T04:46:38.559Z,12.01
2023-05-13T04:47:38.565Z,12.03
2023-05-13T04:48:38.535Z,12.04
2023-05-13T04:49:38.503Z,12.03
2023-05-13T04:50:38.507Z,12.05
2023-05-13T04:51:38.501Z,12.05
2023-05-13T04:52:38.482Z,12.05
2023-05-13T04:53:38.467Z,12.05
2023-05-13T04:54:38.473Z,12.07
2023-05-13T04:55:38.449Z,12.07
2023-05-13T04:56:38.440Z,12.07
2023-05-13T04:57:38.430Z,12.08
2023-05-13T04:58:38.415Z,12.07
2023-05-13T04:59:38.417Z,12.08
2023-05-13T05:00:38.393Z,12.11
2023-05-13T05:01:38.435Z,12.11
2023-05-13T05:02:38.413Z,12.12
2023-05-13T05:03:38.408Z,12.12
2023-05-13T05:04:38.355Z,12.13
2023-05-13T05:05:38.360Z,12.12
2023-05-13T05:06:38.334Z,12.13
2023-05-13T05:07:38.311Z,12.13
2023-05-13T05:08:38.310Z,12.13
2023-05-13T05:09:38.291Z,12.15
2023-05-13T05:10:38.300Z,12.15
2023-05-13T05:11:38.289Z,12.15
2023-05-13T05:12:38.293Z,12.13
2023-05-13T05:13:38.246Z,12.15
2023-05-13T05:14:38.250Z,12.15
2023-05-13T05:15:38.226Z,12.15
2023-05-13T05:16:38.234Z,12.15
2023-05-13T05:17:38.338Z,12.15
2023-05-13T05:18:38.310Z,12.13
2023-05-13T05:19:38.180Z,12.13
2023-05-13T05:20:38.187Z,12.13
2023-05-13T05:21:38.168Z,12.13
2023-05-13T05:22:38.161Z,12.16
2023-05-13T05:23:38.149Z,12.18
2023-05-13T05:24:38.144Z,12.19
2023-05-13T05:25:38.144Z,12.18
2023-05-13T05:26:38.116Z,12.19
2023-05-13T05:27:38.097Z,12.21
2023-05-13T05:28:38.102Z,12.23
2023-05-13T05:29:38.072Z,12.23
2023-05-13T05:30:38.071Z,12.23
2023-05-13T05:31:38.138Z,12.23
2023-05-13T05:32:38.136Z,12.25
2023-05-13T05:33:38.055Z,12.25
2023-05-13T05:34:38.041Z,12.23
2023-05-13T05:35:38.014Z,12.26
2023-05-13T05:36:38.466Z,12.26
2023-05-13T05:37:37.996Z,12.26
2023-05-13T05:38:38.013Z,12.29
2023-05-13T05:39:37.972Z,12.31
2023-05-13T05:40:37.967Z,12.31
2023-05-13T05:41:37.946Z,12.31
2023-05-13T05:42:37.943Z,12.31
2023-05-13T05:43:37.929Z,12.31
2023-05-13T05:44:37.916Z,12.31
2023-05-13T05:45:37.958Z,12.30
2023-05-13T05:46:37.893Z,12.30
2023-05-13T05:47:37.980Z,12.33
2023-05-13T05:48:37.898Z,12.34
2023-05-13T05:49:37.886Z,12.34
2023-05-13T05:50:37.852Z,12.36
2023-05-13T05:51:37.862Z,12.34
2023-05-13T05:52:37.842Z,12.36
2023-05-13T05:53:37.916Z,12.36
2023-05-13T05:54:37.822Z,12.37
2023-05-13T05:55:37.793Z,12.38
2023-05-13T05:56:37.789Z,12.40
2023-05-13T05:57:37.772Z,12.40
2023-05-13T05:58:37.787Z,12.43
2023-05-13T05:59:37.762Z,12.43
2023-05-13T06:00:37.764Z,12.44
2023-05-13T06:01:37.726Z,12.44
2023-05-13T06:02:37.837Z,12.48
2023-05-13T06:03:37.922Z,12.48
2023-05-13T06:04:37.806Z,12.48
2023-05-13T06:05:37.690Z,12.49
2023-05-13T06:06:37.853Z,12.51
2023-05-13T06:07:37.665Z,12.51
2023-05-13T06:08:37.667Z,12.51
2023-05-13T06:09:37.641Z,12.52
2023-05-13T06:10:37.639Z,12.52
2023-05-13T06:11:37.643Z,12.52
2023-05-13T06:12:37.614Z,12.54
2023-05-13T06:13:37.608Z,12.52
2023-05-13T06:14:37.605Z,12.52
2023-05-13T06:15:37.669Z,12.52
2023-05-13T06:16:37.588Z,12.54
2023-05-13T06:17:37.588Z,12.54
2023-05-13T06:18:37.604Z,12.52
2023-05-13T06:19:37.563Z,12.54
2023-05-13T06:20:37.536Z,12.54
2023-05-13T06:21:37.513Z,12.54
2023-05-13T06:22:37.511Z,12.54
2023-05-13T06:23:37.492Z,12.55
2023-05-13T06:24:37.488Z,12.56
2023-05-13T06:25:37.470Z,12.58
2023-05-13T06:26:37.478Z,12.58
2023-05-13T06:27:37.451Z,12.59
2023-05-13T06:28:37.447Z,12.59
2023-05-13T06:29:37.441Z,12.61
2023-05-13T06:30:37.455Z,12.62
2023-05-13T06:31:37.442Z,12.63
2023-05-13T06:32:39.376Z,12.63
2023-05-13T06:33:37.469Z,12.67
2023-05-13T06:34:37.378Z,12.69
2023-05-13T06:35:37.375Z,12.69
2023-05-13T06:36:37.362Z,12.69
2023-05-13T06:37:37.348Z,12.71
2023-05-13T06:38:37.350Z,12.73
2023-05-13T06:39:37.318Z,12.76
2023-05-13T06:40:37.333Z,12.77
2023-05-13T06:41:37.301Z,12.81
2023-05-13T06:42:37.291Z,12.84
2023-05-13T06:43:37.294Z,12.87
2023-05-13T06:44:37.271Z,12.88
2023-05-13T06:45:37.269Z,12.92
2023-05-13T06:46:37.275Z,12.94
2023-05-13T06:47:37.246Z,12.95
2023-05-13T06:48:37.253Z,12.98
2023-05-13T06:49:37.213Z,13.06
2023-05-13T06:50:37.236Z,13.07
2023-05-13T06:51:37.184Z,13.12
2023-05-13T06:52:37.550Z,13.14
2023-05-13T06:53:37.180Z,13.16
2023-05-13T06:54:37.168Z,13.19
2023-05-13T06:55:37.163Z,13.21
2023-05-13T06:56:37.157Z,13.24
2023-05-13T06:57:42.928Z,13.24
2023-05-13T06:58:38.123Z,13.27
2023-05-13T06:59:37.126Z,13.28
2023-05-13T07:00:37.136Z,13.28
2023-05-13T07:01:37.160Z,13.31
2023-05-13T07:02:37.115Z,13.31
2023-05-13T07:03:37.083Z,13.35
2023-05-13T07:04:37.055Z,13.36
2023-05-13T07:05:37.080Z,13.38
2023-05-13T07:06:37.028Z,13.41
2023-05-13T07:07:37.017Z,13.41
2023-05-13T07:08:37.015Z,13.44
2023-05-13T07:09:36.991Z,13.46
2023-05-13T07:10:37.117Z,13.48
2023-05-13T07:11:36.984Z,13.50
2023-05-13T07:12:36.986Z,13.53
2023-05-13T07:13:37.764Z,13.57
2023-05-13T07:14:36.948Z,13.61
2023-05-13T07:15:36.927Z,13.63
2023-05-13T07:16:36.936Z,13.66
2023-05-13T07:17:37.087Z,13.66
2023-05-13T07:18:36.948Z,13.71
2023-05-13T07:19:36.900Z,13.72
2023-05-13T07:20:36.885Z,13.75
2023-05-13T07:21:36.858Z,13.76
2023-05-13T07:22:36.872Z,13.80
2023-05-13T07:23:36.835Z,13.81
2023-05-13T07:24:36.841Z,13.83
2023-05-13T07:25:36.837Z,13.83
2023-05-13T07:26:36.811Z,13.84
2023-05-13T07:27:36.809Z,13.87
2023-05-13T07:28:36.789Z,13.87
2023-05-13T07:29:36.768Z,13.86
2023-05-13T07:30:36.817Z,13.84
2023-05-13T07:31:36.801Z,13.86
2023-05-13T07:32:36.784Z,13.84
2023-05-13T07:33:36.731Z,13.84
2023-05-13T07:34:36.726Z,13.83
2023-05-13T07:35:36.718Z,13.81
2023-05-13T07:36:36.707Z,13.83
2023-05-13T07:37:36.686Z,13.81
2023-05-13T07:38:36.683Z,13.83
2023-05-13T07:39:36.657Z,13.84
2023-05-13T07:40:36.681Z,13.86
2023-05-13T07:41:36.650Z,13.87
2023-05-13T07:42:36.647Z,13.87
2023-05-13T07:43:36.622Z,13.87
2023-05-13T07:44:36.626Z,13.88
2023-05-13T07:45:36.633Z,13.91
2023-05-13T07:46:36.623Z,13.91
2023-05-13T07:47:36.577Z,13.93
2023-05-13T07:48:36.578Z,13.94
2023-05-13T07:49:36.561Z,13.96
2023-05-13T07:50:36.573Z,13.96
2023-05-13T07:51:36.541Z,13.99
2023-05-13T07:52:36.533Z,13.98
2023-05-13T07:53:36.532Z,13.99
2023-05-13T07:54:36.536Z,13.99
2023-05-13T07:55:36.522Z,14.01
2023-05-13T07:56:36.489Z,14.01
2023-05-13T07:57:36.477Z,14.01
2023-05-13T07:58:36.475Z,14.01
2023-05-13T07:59:36.451Z,14.04
2023-05-13T08:00:36.447Z,14.06
2023-05-13T08:01:36.431Z,14.09
2023-05-13T08:02:36.519Z,14.11
2023-05-13T08:03:36.658Z,14.16
2023-05-13T08:04:36.418Z,14.17
2023-05-13T08:05:36.385Z,14.20
2023-05-13T08:06:37.198Z,14.20
2023-05-13T08:07:36.388Z,14.21
2023-05-13T08:08:36.352Z,14.20
2023-05-13T08:09:36.348Z,14.21
2023-05-13T08:10:36.334Z,14.21
2023-05-13T08:11:36.328Z,14.20
2023-05-13T08:12:36.322Z,14.20
2023-05-13T08:13:36.299Z,14.20
2023-05-13T08:14:36.290Z,14.21
2023-05-13T08:15:36.278Z,14.23
2023-05-13T08:16:36.366Z,14.21
2023-05-13T08:17:36.350Z,14.24
2023-05-13T08:18:36.294Z,14.24
2023-05-13T08:19:36.269Z,14.27
2023-05-13T08:20:36.226Z,14.29
2023-05-13T08:21:36.212Z,14.29
2023-05-13T08:22:36.219Z,14.27
2023-05-13T08:23:44.877Z,14.30
2023-05-13T08:24:37.192Z,14.31
2023-05-13T08:25:36.172Z,14.34
2023-05-13T08:26:36.152Z,14.35
2023-05-13T08:27:36.173Z,14.36
2023-05-13T08:28:36.136Z,14.38
2023-05-13T08:29:36.124Z,14.38
2023-05-13T08:30:36.116Z,14.38
2023-05-13T08:31:36.139Z,14.39
2023-05-13T08:32:36.113Z,14.41
2023-05-13T08:33:36.084Z,14.41
2023-05-13T08:34:36.075Z,14.41
2023-05-13T08:35:36.085Z,14.42
2023-05-13T08:36:36.053Z,14.42
2023-05-13T08:37:36.053Z,14.42
2023-05-13T08:38:36.036Z,14.42
2023-05-13T08:39:36.025Z,14.44
2023-05-13T08:40:36.014Z,14.45
2023-05-13T08:41:36.002Z,14.49
2023-05-13T08:42:35.982Z,14.52
2023-05-13T08:43:35.973Z,14.53
2023-05-13T08:44:35.973Z,14.54
2023-05-13T08:45:35.953Z,14.57
2023-05-13T08:46:36.022Z,14.57
2023-05-13T08:47:36.966Z,14.57
2023-05-13T08:48:35.925Z,14.59
2023-05-13T08:49:35.912Z,14.60
2023-05-13T08:50:35.994Z,14.61
2023-05-13T08:51:35.916Z,14.64
2023-05-13T08:52:35.873Z,14.63
2023-05-13T08:53:35.899Z,14.64
2023-05-13T08:54:35.853Z,14.64
2023-05-13T08:55:35.850Z,14.66
2023-05-13T08:56:35.834Z,14.69
2023-05-13T08:57:35.864Z,14.69
2023-05-13T08:58:35.812Z,14.71
2023-05-13T08:59:35.805Z,14.74
2023-05-13T09:00:35.799Z,14.79
2023-05-13T09:01:35.866Z,14.82
2023-05-13T09:02:35.814Z,14.83
2023-05-13T09:03:35.774Z,14.86
2023-05-13T09:04:35.773Z,14.87
2023-05-13T09:05:38.353Z,14.87
2023-05-13T09:06:35.754Z,14.90
2023-05-13T09:07:35.722Z,14.93
2023-05-13T09:08:35.704Z,14.93
2023-05-13T09:09:35.704Z,14.91
2023-05-13T09:10:35.683Z,14.93
2023-05-13T09:11:35.692Z,14.93
2023-05-13T09:12:35.666Z,14.95
2023-05-13T09:13:35.672Z,14.97
2023-05-13T09:14:35.645Z,15.00
2023-05-13T09:15:35.675Z,15.03
2023-05-13T09:16:35.696Z,15.04
2023-05-13T09:17:35.640Z,15.09
2023-05-13T09:18:35.824Z,15.12
2023-05-13T09:19:35.720Z,15.12
2023-05-13T09:20:35.590Z,15.16
2023-05-13T09:21:35.588Z,15.20
2023-05-13T09:22:35.557Z,15.28
2023-05-13T09:23:35.542Z,15.35
2023-05-13T09:24:35.527Z,15.41
2023-05-13T09:25:35.517Z,15.51
2023-05-13T09:26:35.512Z,15.56
2023-05-13T09:27:35.497Z,15.62
2023-05-13T09:28:35.479Z,15.68
2023-05-13T09:29:35.474Z,15.71
2023-05-13T09:30:35.481Z,15.77
2023-05-13T09:31:35.498Z,15.85
2023-05-13T09:32:35.487Z,15.92
2023-05-13T09:33:35.443Z,15.95
2023-05-13T09:34:35.416Z,16.01
2023-05-13T09:35:35.407Z,16.01
2023-05-13T09:36:35.397Z,16.03
2023-05-13T09:37:35.388Z,16.10
2023-05-13T09:38:35.385Z,16.14
2023-05-13T09:39:35.380Z,16.25
2023-05-13T09:40:35.362Z,16.29
2023-05-13T09:41:35.343Z,16.32
2023-05-13T09:42:35.333Z,16.34
2023-05-13T09:43:35.327Z,16.36
2023-05-13T09:44:35.354Z,16.34
2023-05-13T09:45:35.335Z,16.33
2023-05-13T09:46:35.325Z,16.32
2023-05-13T09:47:35.344Z,16.29
2023-05-13T09:48:35.298Z,16.30
2023-05-13T09:49:35.257Z,16.30
2023-05-13T09:50:35.261Z,16.33
2023-05-13T09:51:35.235Z,16.33
2023-05-13T09:52:35.239Z,16.30
2023-05-13T09:53:35.210Z,16.32
2023-05-13T09:54:35.196Z,16.32
2023-05-13T09:55:35.222Z,16.36
2023-05-13T09:56:35.191Z,16.36
2023-05-13T09:57:35.175Z,16.36
2023-05-13T09:58:35.154Z,16.37
2023-05-13T09:59:35.167Z,16.37
2023-05-13T10:00:37.485Z,16.40
2023-05-13T10:01:35.191Z,16.42
2023-05-13T10:02:35.254Z,16.41
2023-05-13T10:03:35.162Z,16.44
2023-05-13T10:04:35.097Z,16.42
2023-05-13T10:05:35.111Z,16.45
2023-05-13T10:06:35.078Z,16.47
2023-05-13T10:07:35.059Z,16.44
2023-05-13T10:08:35.069Z,16.47
2023-05-13T10:09:35.050Z,16.48
2023-05-13T10:10:35.026Z,16.50
2023-05-13T10:11:35.042Z,16.48
2023-05-13T10:12:35.026Z,16.48
2023-05-13T10:13:35.001Z,16.48
2023-05-13T10:14:35.002Z,16.48
2023-05-13T10:15:34.989Z,16.50
2023-05-13T10:16:35.088Z,16.51
2023-05-13T10:17:35.031Z,16.50
2023-05-13T10:18:34.966Z,16.48
2023-05-13T10:19:34.931Z,16.48
2023-05-13T10:20:34.917Z,16.50
2023-05-13T10:21:34.916Z,16.48
2023-05-13T10:22:34.910Z,16.47
2023-05-13T10:23:34.908Z,16.47
2023-05-13T10:24:37.323Z,16.48
2023-05-13T10:25:34.880Z,16.50
2023-05-13T10:26:34.900Z,16.47
2023-05-13T10:27:34.869Z,16.48
2023-05-13T10:28:34.832Z,16.51
2023-05-13T10:29:34.828Z,16.51
2023-05-13T10:30:34.828Z,16.51
2023-05-13T10:31:34.855Z,16.51
2023-05-13T10:32:34.818Z,16.51
2023-05-13T10:33:34.777Z,16.50
2023-05-13T10:34:34.768Z,16.48
2023-05-13T10:35:37.519Z,16.50
2023-05-13T10:36:34.758Z,16.50
2023-05-13T10:37:34.740Z,16.50
2023-05-13T10:38:34.733Z,16.48
2023-05-13T10:39:34.748Z,16.48
2023-05-13T10:40:34.722Z,16.50
2023-05-13T10:41:34.695Z,16.48
2023-05-13T10:42:34.673Z,16.48
2023-05-13T10:43:34.693Z,16.47
2023-05-13T10:44:34.670Z,16.45
2023-05-13T10:45:34.657Z,16.42
2023-05-13T10:46:34.679Z,16.40
2023-05-13T10:47:34.716Z,16.37
2023-05-13T10:48:34.678Z,16.36
2023-05-13T10:49:34.714Z,16.40
2023-05-13T10:50:34.598Z,16.41
2023-05-13T10:51:34.698Z,16.41
2023-05-13T10:52:34.568Z,16.40
2023-05-13T10:53:34.566Z,16.37
2023-05-13T10:54:34.594Z,16.40
2023-05-13T10:55:34.566Z,16.42
2023-05-13T10:56:34.551Z,16.41
2023-05-13T10:57:34.542Z,16.41
2023-05-13T10:58:34.550Z,16.42
2023-05-13T10:59:34.520Z,16.41
2023-05-13T11:00:34.513Z,16.42
2023-05-13T11:01:34.505Z,16.41
2023-05-13T11:02:34.573Z,16.42
2023-05-13T11:03:34.540Z,16.42
2023-05-13T11:04:34.515Z,16.40
2023-05-13T11:05:34.472Z,16.37
2023-05-13T11:06:34.437Z,16.37
2023-05-13T11:07:34.427Z,16.37
2023-05-13T11:08:34.417Z,16.34
2023-05-13T11:09:34.395Z,16.34
2023-05-13T11:10:34.375Z,16.36
2023-05-13T11:11:34.420Z,16.37
2023-05-13T11:12:34.362Z,16.42
2023-05-13T11:13:34.350Z,16.52
2023-05-13T11:14:34.349Z,16.70
2023-05-13T11:15:34.330Z,16.96
2023-05-13T11:16:34.383Z,17.17
2023-05-13T11:17:34.349Z,17.33
2023-05-13T11:18:34.335Z,17.49
2023-05-13T11:19:34.289Z,17.60
2023-05-13T11:20:45.460Z,17.73
2023-05-13T11:21:35.276Z,17.79
2023-05-13T11:22:34.266Z,17.80
2023-05-13T11:23:34.241Z,17.76
2023-05-13T11:24:34.232Z,17.74
2023-05-13T11:25:34.311Z,17.70
2023-05-13T11:26:34.217Z,17.63
2023-05-13T11:27:34.222Z,17.57
2023-05-13T11:28:34.200Z,17.47
2023-05-13T11:29:34.199Z,17.42
2023-05-13T11:30:34.160Z,17.35
2023-05-13T11:31:34.193Z,17.25
2023-05-13T11:32:34.186Z,17.18
2023-05-13T11:33:34.156Z,17.14
2023-05-13T11:34:34.138Z,17.07
2023-05-13T11:35:34.118Z,17.05
2023-05-13T11:36:34.110Z,16.96
2023-05-13T11:37:34.088Z,16.90
2023-05-13T11:38:34.085Z,16.85
2023-05-13T11:39:34.106Z,16.82
2023-05-13T11:40:34.069Z,16.87
2023-05-13T11:41:34.063Z,16.91
2023-05-13T11:42:34.046Z,17.00
2023-05-13T11:43:34.776Z,17.14
2023-05-13T11:44:34.037Z,17.25
2023-05-13T11:45:34.104Z,17.38
2023-05-13T11:46:33.991Z,17.47
2023-05-13T11:47:34.042Z,17.53
2023-05-13T11:48:33.970Z,17.63
2023-05-13T11:49:33.974Z,17.70
2023-05-13T11:50:34.216Z,17.77
2023-05-13T11:51:33.951Z,17.86
2023-05-13T11:52:33.946Z,17.95
2023-05-13T11:53:33.934Z,18.01
2023-05-13T11:54:33.929Z,18.05
2023-05-13T11:55:33.918Z,18.07
2023-05-13T11:56:33.879Z,18.07
2023-05-13T11:57:33.877Z,18.05
2023-05-13T11:58:33.867Z,18.09
2023-05-13T11:59:45.305Z,18.09
2023-05-13T12:00:34.915Z,18.05
2023-05-13T12:01:33.831Z,18.01
2023-05-13T12:02:33.957Z,17.99
2023-05-13T12:03:33.863Z,17.99
2023-05-13T12:04:33.860Z,17.94
2023-05-13T12:05:33.812Z,17.91
2023-05-13T12:06:33.801Z,17.83
2023-05-13T12:07:33.794Z,17.83
2023-05-13T12:08:33.760Z,17.80
2023-05-13T12:09:33.744Z,17.79
2023-05-13T12:10:33.735Z,17.76
2023-05-13T12:11:33.727Z,17.71
2023-05-13T12:12:33.709Z,17.73
2023-05-13T12:13:33.700Z,17.73
2023-05-13T12:14:33.713Z,17.71
2023-05-13T12:15:33.751Z,17.73
2023-05-13T12:16:33.765Z,17.74
2023-05-13T12:17:33.682Z,17.74
2023-05-13T12:18:33.777Z,17.73
2023-05-13T12:19:33.639Z,17.70
2023-05-13T12:20:33.644Z,17.70
2023-05-13T12:21:33.609Z,17.73
2023-05-13T12:22:33.627Z,17.74
2023-05-13T12:23:33.591Z,17.77
2023-05-13T12:24:33.581Z,17.77
2023-05-13T12:25:33.589Z,17.79
2023-05-13T12:26:33.569Z,17.79
2023-05-13T12:27:33.543Z,17.81
2023-05-13T12:28:33.552Z,17.84
2023-05-13T12:29:33.541Z,17.84
2023-05-13T12:30:33.513Z,17.86
2023-05-13T12:31:33.562Z,17.87
2023-05-13T12:32:33.530Z,17.89
2023-05-13T12:33:33.494Z,17.89
2023-05-13T12:34:33.489Z,17.91
2023-05-13T12:35:33.454Z,17.91
2023-05-13T12:36:33.667Z,17.92
2023-05-13T12:37:33.447Z,17.94
2023-05-13T12:38:33.438Z,17.98
2023-05-13T12:39:33.412Z,18.02
2023-05-13T12:40:33.412Z,18.05
2023-05-13T12:41:33.395Z,18.10
2023-05-13T12:42:33.388Z,18.10
2023-05-13T12:43:33.388Z,18.16
2023-05-13T12:44:33.360Z,18.17
2023-05-13T12:45:33.366Z,18.19
2023-05-13T12:46:33.426Z,18.21
2023-05-13T12:47:33.366Z,18.20
2023-05-13T12:48:33.314Z,18.21
2023-05-13T12:49:33.304Z,18.23
2023-05-13T12:50:33.291Z,18.29
2023-05-13T12:51:33.277Z,18.36
2023-05-13T12:52:33.301Z,18.49